createdAt,value
2023-08-28T00:00:26.649Z,1.00
2023-08-28T00:02:49.132Z,1.00
2023-08-28T00:04:51.441Z,1.00
2023-08-28T00:06:53.780Z,1.00
2023-08-28T00:10:58.718Z,1.00
2023-08-28T00:13:01.018Z,1.00
2023-08-28T00:15:03.610Z,1.00
2023-08-28T00:21:12.262Z,1.00
2023-08-28T00:23:14.379Z,1.00
2023-08-28T00:25:16.777Z,1.00
2023-08-28T00:27:18.882Z,1.00
2023-08-28T00:29:21.266Z,1.00
2023-08-28T00:33:26.820Z,1.00
2023-08-28T00:35:29.061Z,1.00
2023-08-28T00:39:34.126Z,1.00
2023-08-28T00:41:37.876Z,1.00
2023-08-28T00:43:40.813Z,1.00
2023-08-28T00:45:44.264Z,1.00
2023-08-28T00:49:50.124Z,1.00
2023-08-28T00:51:52.334Z,1.00
2023-08-28T00:53:54.853Z,1.00
2023-08-28T00:55:57.521Z,1.00
2023-08-28T00:58:00.123Z,1.00
2023-08-28T01:00:03.554Z,1.00
2023-08-28T01:06:30.156Z,1.00
2023-08-28T01:08:45.701Z,1.00
2023-08-28T01:10:53.036Z,1.00
2023-08-28T01:13:22.552Z,1.00
2023-08-28T01:15:27.240Z,1.00
2023-08-28T01:17:31.758Z,1.00
2023-08-28T01:19:38.829Z,1.00
2023-08-28T01:21:45.116Z,1.00
2023-08-28T01:23:58.893Z,1.00
2023-08-28T01:28:04.695Z,1.00
2023-08-28T01:30:16.079Z,1.00
2023-08-28T01:34:21.045Z,6.40
2023-08-28T01:36:32.321Z,2.80
2023-08-28T01:38:45.657Z,1.00
2023-08-28T01:41:02.353Z,1.00
2023-08-28T01:43:09.145Z,24.20
2023-08-28T01:45:12.918Z,26.10
2023-08-28T01:47:15.551Z,22.90
2023-08-28T01:51:21.394Z,27.10
2023-08-28T01:53:24.101Z,16.70
2023-08-28T01:56:10.573Z,6.60
2023-08-28T01:58:16.004Z,1.00
2023-08-28T02:04:23.941Z,1.00
2023-08-28T02:06:26.429Z,1.00
2023-08-28T02:08:28.624Z,1.00
2023-08-28T02:10:30.722Z,1.00
2023-08-28T02:14:35.781Z,1.00
2023-08-28T02:20:47.073Z,1.00
2023-08-28T02:22:49.221Z,1.00
2023-08-28T02:26:54.198Z,1.00
2023-08-28T02:28:56.605Z,1.00
2023-08-28T02:33:04.050Z,1.00
2023-08-28T02:35:06.388Z,1.00
2023-08-28T02:43:16.627Z,1.00
2023-08-28T02:45:18.718Z,1.00
2023-08-28T02:47:20.824Z,1.00
2023-08-28T02:51:25.882Z,1.00
2023-08-28T02:55:41.473Z,1.00
2023-08-28T02:57:44.000Z,99.90
2023-08-28T03:03:51.563Z,99.90
2023-08-28T03:05:54.087Z,99.90
2023-08-28T03:07:56.387Z,99.90
2023-08-28T03:14:05.187Z,99.90
2023-08-28T03:16:07.413Z,99.90
2023-08-28T03:18:09.550Z,99.90
2023-08-28T03:22:14.628Z,99.90
2023-08-28T03:32:34.711Z,99.90
2023-08-28T03:36:39.771Z,99.90
2023-08-28T03:40:45.921Z,99.90
2023-08-28T03:46:53.960Z,99.90
2023-08-28T03:48:56.377Z,99.90
2023-08-28T03:53:02.593Z,99.90
2023-08-28T03:59:10.559Z,99.90
2023-08-28T04:03:16.989Z,99.90
2023-08-28T04:07:26.800Z,99.90
2023-08-28T04:09:31.065Z,99.90
2023-08-28T04:13:36.132Z,99.90
2023-08-28T04:15:42.166Z,99.90
2023-08-28T04:17:44.669Z,99.90
2023-08-28T04:19:51.818Z,99.90
2023-08-28T04:21:54.282Z,99.90
2023-08-28T04:23:56.366Z,99.90
2023-08-28T04:25:58.814Z,99.90
2023-08-28T04:28:00.931Z,1.00
2023-08-28T04:30:04.439Z,99.90
2023-08-28T04:32:06.870Z,43.00
2023-08-28T04:34:09.356Z,1.00
2023-08-28T04:36:11.476Z,1.00
2023-08-28T04:38:13.959Z,1.00
2023-08-28T04:42:18.739Z,1.00
2023-08-28T04:44:21.586Z,1.00
2023-08-28T04:46:23.770Z,14.70
2023-08-28T04:50:28.636Z,40.20
2023-08-28T04:54:37.556Z,99.90
2023-08-28T04:58:43.070Z,99.90
2023-08-28T05:00:45.518Z,99.90
2023-08-28T05:02:47.719Z,99.90
2023-08-28T05:04:50.380Z,99.90
2023-08-28T05:06:52.557Z,99.90
2023-08-28T05:08:55.645Z,99.90
2023-08-28T05:10:57.892Z,99.90
2023-08-28T05:13:01.423Z,63.30
2023-08-28T05:15:04.161Z,99.90
2023-08-28T05:17:07.388Z,99.90
2023-08-28T05:23:15.014Z,99.90
2023-08-28T05:25:17.551Z,99.90
2023-08-28T05:31:25.164Z,39.40
2023-08-28T05:33:27.657Z,1.00
2023-08-28T05:35:29.754Z,99.90
2023-08-28T05:39:34.716Z,98.90
2023-08-28T05:43:40.582Z,38.90
2023-08-28T05:51:51.449Z,99.90
2023-08-28T05:53:54.080Z,99.90
2023-08-28T05:55:56.302Z,99.90
2023-08-28T05:57:58.904Z,1.00
2023-08-28T06:02:05.488Z,99.90
2023-08-28T06:06:13.380Z,1.00
2023-08-28T06:08:17.414Z,1.00
2023-08-28T06:10:20.834Z,1.00
2023-08-28T06:12:23.266Z,99.90
2023-08-28T06:14:25.717Z,99.90
2023-08-28T06:16:28.132Z,99.90
2023-08-28T06:18:30.647Z,99.90
2023-08-28T06:20:34.079Z,99.90
2023-08-28T06:22:36.781Z,1.00
2023-08-28T06:24:39.169Z,99.90
2023-08-28T06:26:43.720Z,99.90
2023-08-28T06:30:51.478Z,99.90
2023-08-28T06:32:54.172Z,1.00
2023-08-28T06:34:56.698Z,1.00
2023-08-28T06:36:58.943Z,99.90
2023-08-28T06:39:01.464Z,99.90
2023-08-28T06:41:04.029Z,11.90
2023-08-28T06:43:06.725Z,1.00
2023-08-28T06:45:09.705Z,99.10
2023-08-28T06:47:12.192Z,99.90
2023-08-28T06:51:17.242Z,1.00
2023-08-28T06:53:19.346Z,99.90
2023-08-28T06:55:21.802Z,99.90
2023-08-28T06:57:24.058Z,99.90
2023-08-28T07:01:30.213Z,99.90
2023-08-28T07:03:32.709Z,99.90
2023-08-28T07:05:34.987Z,38.20
2023-08-28T07:07:37.628Z,92.30
2023-08-28T07:09:40.407Z,1.00
2023-08-28T07:11:44.535Z,1.00
2023-08-28T07:13:46.717Z,1.00
2023-08-28T07:15:49.377Z,1.00
2023-08-28T07:17:51.911Z,1.00
2023-08-28T07:19:56.476Z,1.00
2023-08-28T07:22:01.387Z,1.00
2023-08-28T07:24:03.981Z,1.00
2023-08-28T07:26:07.657Z,1.00
2023-08-28T07:28:10.330Z,1.00
2023-08-28T07:30:14.175Z,1.00
2023-08-28T07:34:20.147Z,1.00
2023-08-28T07:36:24.020Z,1.00
2023-08-28T07:38:26.539Z,1.00
2023-08-28T07:40:28.778Z,1.00
2023-08-28T07:42:31.410Z,1.00
2023-08-28T07:44:37.876Z,1.00
2023-08-28T07:46:40.416Z,1.00
2023-08-28T07:48:42.712Z,99.90
2023-08-28T07:50:46.621Z,99.90
2023-08-28T07:52:48.824Z,1.00
2023-08-28T07:54:51.244Z,1.00
2023-08-28T07:56:53.473Z,1.00
2023-08-28T07:58:57.831Z,99.90
2023-08-28T08:01:01.338Z,99.90
2023-08-28T08:03:07.243Z,99.90
2023-08-28T08:05:13.188Z,99.90
2023-08-28T08:07:15.629Z,99.90
2023-08-28T08:09:18.594Z,99.90
2023-08-28T08:11:21.077Z,99.90
2023-08-28T08:13:23.229Z,99.90
2023-08-28T08:15:26.292Z,99.90
2023-08-28T08:17:28.584Z,99.90
2023-08-28T08:19:44.292Z,99.90
2023-08-28T08:21:46.365Z,99.90
2023-08-28T08:23:55.495Z,1.00
2023-08-28T08:25:57.669Z,1.00
2023-08-28T08:28:00.341Z,1.00
2023-08-28T08:30:08.322Z,1.00
2023-08-28T08:34:13.194Z,1.00
2023-08-28T08:36:18.729Z,1.00
2023-08-28T08:38:22.021Z,1.00
2023-08-28T08:40:27.078Z,99.90
2023-08-28T08:42:29.467Z,1.00
2023-08-28T08:44:32.152Z,1.00
2023-08-28T08:46:35.497Z,1.00
2023-08-28T08:48:38.512Z,1.00
2023-08-28T08:50:41.298Z,99.90
2023-08-28T08:52:45.050Z,1.00
2023-08-28T08:54:48.832Z,99.90
2023-08-28T08:57:11.644Z,1.00
2023-08-28T08:59:14.085Z,1.00
2023-08-28T09:01:16.954Z,1.00
2023-08-28T09:03:19.680Z,1.00
2023-08-28T09:05:22.140Z,1.00
2023-08-28T09:07:26.423Z,1.00
2023-08-28T09:09:28.966Z,1.00
2023-08-28T09:11:31.530Z,1.00
2023-08-28T09:13:34.415Z,1.00
2023-08-28T09:15:37.109Z,1.00
2023-08-28T09:17:43.072Z,1.00
2023-08-28T09:19:49.252Z,1.00
2023-08-28T09:21:51.588Z,1.00
2023-08-28T09:23:54.266Z,1.00
2023-08-28T09:25:56.445Z,1.00
2023-08-28T09:27:58.919Z,1.00
2023-08-28T09:30:01.178Z,1.00
2023-08-28T09:32:04.612Z,1.00
2023-08-28T09:34:09.392Z,1.00
2023-08-28T09:36:17.510Z,1.00
2023-08-28T09:38:19.999Z,1.00
2023-08-28T09:40:35.557Z,1.00
2023-08-28T09:42:38.213Z,1.00
2023-08-28T09:44:40.430Z,1.00
2023-08-28T09:46:44.759Z,1.00
2023-08-28T09:48:47.637Z,1.00
2023-08-28T09:50:54.056Z,1.00
2023-08-28T09:53:05.913Z,1.00
2023-08-28T09:55:08.865Z,1.00
2023-08-28T09:57:17.826Z,1.00
2023-08-28T09:59:20.773Z,1.00
2023-08-28T10:01:23.239Z,1.00
2023-08-28T10:03:26.595Z,1.00
2023-08-28T10:05:29.957Z,1.00
2023-08-28T10:07:33.569Z,1.00
2023-08-28T10:11:40.707Z,1.00
2023-08-28T10:13:43.414Z,1.00
2023-08-28T10:16:03.023Z,1.00
2023-08-28T10:18:23.238Z,1.00
2023-08-28T10:20:27.981Z,1.00
2023-08-28T10:22:31.836Z,1.00
2023-08-28T10:24:36.665Z,1.00
2023-08-28T10:26:40.096Z,1.00
2023-08-28T10:28:43.350Z,1.00
2023-08-28T10:30:47.410Z,1.00
2023-08-28T10:32:51.227Z,1.00
2023-08-28T10:34:54.465Z,1.00
2023-08-28T10:37:06.466Z,1.00
2023-08-28T10:39:19.899Z,1.00
2023-08-28T10:41:23.261Z,1.00
2023-08-28T10:43:27.605Z,99.90
2023-08-28T10:45:30.279Z,1.00
2023-08-28T10:47:32.757Z,1.00
2023-08-28T10:51:38.350Z,99.90
2023-08-28T10:53:41.541Z,1.00
2023-08-28T10:55:57.756Z,1.00
2023-08-28T10:58:04.289Z,1.00
2023-08-28T11:00:16.362Z,1.00
2023-08-28T11:02:20.246Z,1.00
2023-08-28T11:04:23.910Z,1.00
2023-08-28T11:06:35.329Z,1.00
2023-08-28T11:08:37.673Z,99.90
2023-08-28T11:10:45.435Z,1.00
2023-08-28T11:12:57.360Z,1.00
2023-08-28T11:15:00.942Z,1.00
2023-08-28T11:17:13.197Z,99.90
2023-08-28T11:19:15.757Z,1.00
2023-08-28T11:21:18.118Z,1.00
2023-08-28T11:23:25.834Z,1.00
2023-08-28T11:25:40.695Z,1.00
2023-08-28T11:27:51.287Z,1.00
2023-08-28T11:29:53.532Z,1.00
2023-08-28T11:31:56.009Z,1.00
2023-08-28T11:33:58.095Z,1.00
2023-08-28T11:36:04.776Z,1.00
2023-08-28T11:38:06.976Z,1.00
2023-08-28T11:40:11.032Z,1.00
2023-08-28T11:42:13.936Z,1.00
2023-08-28T11:44:16.414Z,1.00
2023-08-28T11:46:25.630Z,1.00
2023-08-28T11:50:30.932Z,1.00
2023-08-28T11:52:33.113Z,1.00
2023-08-28T11:54:35.290Z,1.00
2023-08-28T11:56:39.501Z,1.00
2023-08-28T11:58:43.009Z,99.90
2023-08-28T12:00:45.949Z,1.00
2023-08-28T12:02:49.317Z,1.00
2023-08-28T12:04:51.951Z,1.00
2023-08-28T12:06:54.280Z,1.00
2023-08-28T12:08:56.811Z,99.90
2023-08-28T12:11:00.541Z,1.00
2023-08-28T12:13:03.995Z,1.00
2023-08-28T12:17:29.524Z,99.90
2023-08-28T12:19:32.420Z,99.90
2023-08-28T12:21:39.734Z,99.90
2023-08-28T12:23:54.387Z,1.00
2023-08-28T12:28:10.182Z,1.00
2023-08-28T12:30:20.243Z,1.00
2023-08-28T12:32:22.770Z,99.90
2023-08-28T12:34:31.280Z,99.90
2023-08-28T12:36:49.645Z,99.90
2023-08-28T12:40:54.613Z,1.00
2023-08-28T12:49:09.452Z,99.90
2023-08-28T12:53:14.417Z,1.00
2023-08-28T12:57:19.647Z,1.00
2023-08-28T13:05:34.272Z,1.00
2023-08-28T13:07:36.696Z,99.90
2023-08-28T13:09:38.838Z,1.00
2023-08-28T13:17:50.949Z,1.00
2023-08-28T13:19:53.465Z,1.00
2023-08-28T13:21:55.890Z,1.00
2023-08-28T13:28:04.288Z,1.00
2023-08-28T13:30:08.818Z,99.90
2023-08-28T13:32:11.273Z,2.70
2023-08-28T13:36:19.994Z,99.90
2023-08-28T13:42:27.999Z,1.00
2023-08-28T13:44:31.659Z,99.90
2023-08-28T13:46:33.924Z,99.90
2023-08-28T13:48:36.409Z,99.90
2023-08-28T13:52:46.370Z,99.90
2023-08-28T13:58:54.692Z,99.90
2023-08-28T14:01:01.237Z,99.90
2023-08-28T14:03:04.385Z,99.90
2023-08-28T14:05:08.744Z,99.90
2023-08-28T14:07:12.230Z,99.90
2023-08-28T14:09:14.672Z,99.90
2023-08-28T14:11:16.885Z,99.90
2023-08-28T14:13:19.572Z,99.90
2023-08-28T14:15:21.875Z,99.90
2023-08-28T14:17:25.553Z,99.90
2023-08-28T14:19:27.919Z,99.90
2023-08-28T14:21:30.297Z,99.90
2023-08-28T14:23:32.989Z,99.90
2023-08-28T14:25:35.444Z,99.90
2023-08-28T14:27:51.194Z,99.90
2023-08-28T14:29:59.017Z,99.90
2023-08-28T14:32:01.187Z,99.90
2023-08-28T14:34:03.932Z,99.90
2023-08-28T14:36:06.362Z,99.90
2023-08-28T14:38:08.880Z,99.90
2023-08-28T14:40:11.167Z,99.90
2023-08-28T14:42:13.673Z,99.90
2023-08-28T14:44:15.829Z,99.90
2023-08-28T14:46:18.303Z,99.90
2023-08-28T14:48:21.070Z,99.90
2023-08-28T14:50:24.254Z,99.90
2023-08-28T14:52:26.336Z,99.90
2023-08-28T14:54:28.682Z,99.90
2023-08-28T14:56:31.010Z,99.90
2023-08-28T14:58:33.465Z,99.90
2023-08-28T15:00:35.985Z,99.90
2023-08-28T15:02:42.210Z,1.00
2023-08-28T15:04:44.344Z,1.00
2023-08-28T15:06:47.255Z,1.00
2023-08-28T15:08:49.969Z,99.90
2023-08-28T15:10:52.489Z,1.00
2023-08-28T15:12:54.754Z,99.90
2023-08-28T15:14:57.198Z,99.90
2023-08-28T15:16:59.382Z,99.90
2023-08-28T15:19:01.888Z,99.90
2023-08-28T15:21:04.753Z,99.90
2023-08-28T15:23:07.189Z,1.00
2023-08-28T15:25:11.930Z,1.00
2023-08-28T15:27:16.174Z,1.00
2023-08-28T15:29:18.752Z,1.00
2023-08-28T15:31:21.304Z,1.00
2023-08-28T15:33:23.596Z,1.00
2023-08-28T15:35:27.290Z,1.00
2023-08-28T15:37:29.405Z,99.90
2023-08-28T15:39:31.912Z,1.00
2023-08-28T15:41:35.177Z,1.00
2023-08-28T15:43:37.751Z,1.00
2023-08-28T15:45:53.397Z,1.00
2023-08-28T15:47:55.859Z,1.00
2023-08-28T15:49:58.912Z,1.00
2023-08-28T15:52:01.443Z,1.00
2023-08-28T15:54:03.731Z,1.00
2023-08-28T15:56:06.222Z,1.00
2023-08-28T15:58:08.382Z,1.00
2023-08-28T16:00:11.925Z,1.00
2023-08-28T16:02:14.875Z,1.00
2023-08-28T16:04:17.849Z,1.00
2023-08-28T16:06:20.052Z,1.00
2023-08-28T16:08:22.589Z,1.00
2023-08-28T16:10:25.185Z,1.00
2023-08-28T16:12:27.662Z,1.00
2023-08-28T16:14:31.718Z,1.00
2023-08-28T16:16:34.353Z,1.00
2023-08-28T16:18:36.574Z,1.00
2023-08-28T16:20:43.538Z,99.90
2023-08-28T16:22:45.772Z,1.00
2023-08-28T16:24:48.478Z,1.00
2023-08-28T16:26:50.654Z,1.00
2023-08-28T16:28:54.690Z,99.90
2023-08-28T16:30:56.945Z,1.00
2023-08-28T16:32:59.599Z,1.00
2023-08-28T16:35:01.815Z,1.00
2023-08-28T16:37:04.501Z,1.00
2023-08-28T16:39:06.929Z,1.00
2023-08-28T16:41:09.418Z,1.00
2023-08-28T16:43:11.644Z,1.00
2023-08-28T16:45:14.214Z,1.00
2023-08-28T16:47:18.193Z,1.00
2023-08-28T16:49:22.587Z,1.00
2023-08-28T16:51:34.049Z,1.00
2023-08-28T16:53:37.230Z,1.00
2023-08-28T16:55:42.332Z,1.00
2023-08-28T16:57:44.779Z,1.00
2023-08-28T16:59:46.960Z,99.90
2023-08-28T17:01:49.523Z,1.00
2023-08-28T17:03:52.395Z,1.00
2023-08-28T17:05:58.285Z,1.00
2023-08-28T17:08:00.947Z,7.50
2023-08-28T17:10:04.818Z,12.10
2023-08-28T17:12:09.838Z,15.10
2023-08-28T17:14:12.274Z,1.00
2023-08-28T17:16:14.391Z,1.00
2023-08-28T17:18:16.804Z,40.90
2023-08-28T17:20:19.171Z,40.10
2023-08-28T17:22:21.693Z,57.80
2023-08-28T17:24:23.941Z,1.00
2023-08-28T17:26:26.437Z,1.00
2023-08-28T17:28:28.671Z,1.00
2023-08-28T17:30:31.203Z,92.50
2023-08-28T17:32:40.259Z,98.60
2023-08-28T17:34:45.750Z,1.00
2023-08-28T17:36:50.139Z,99.90
2023-08-28T17:39:10.715Z,1.00
2023-08-28T17:41:12.878Z,27.90
2023-08-28T17:43:15.694Z,99.90
2023-08-28T17:45:17.932Z,99.90
2023-08-28T17:47:20.553Z,1.00
2023-08-28T17:49:22.718Z,1.00
2023-08-28T17:51:25.120Z,11.50
2023-08-28T17:53:27.275Z,99.90
2023-08-28T17:55:31.259Z,99.90
2023-08-28T17:57:33.440Z,99.90
2023-08-28T17:59:35.800Z,99.90
2023-08-28T18:01:38.221Z,90.80
2023-08-28T18:03:41.038Z,99.90
2023-08-28T18:05:43.572Z,99.90
2023-08-28T18:07:45.828Z,99.90
2023-08-28T18:09:49.189Z,99.90
2023-08-28T18:11:51.339Z,99.90
2023-08-28T18:13:53.810Z,99.90
2023-08-28T18:15:55.996Z,99.90
2023-08-28T18:17:58.439Z,99.90
2023-08-28T18:20:00.633Z,99.90
2023-08-28T18:22:03.052Z,99.90
2023-08-28T18:24:05.829Z,99.90
2023-08-28T18:26:08.668Z,99.90
2023-08-28T18:28:13.297Z,99.90
2023-08-28T18:30:16.270Z,99.90
2023-08-28T18:32:18.361Z,99.90
2023-08-28T18:34:20.748Z,99.90
2023-08-28T18:36:22.904Z,1.00
2023-08-28T18:38:25.362Z,99.90
2023-08-28T18:40:27.542Z,99.90
2023-08-28T18:42:29.956Z,99.90
2023-08-28T18:44:32.201Z,99.90
2023-08-28T18:46:35.370Z,99.90
2023-08-28T18:48:37.674Z,99.90
2023-08-28T18:50:44.694Z,99.90
2023-08-28T18:52:50.113Z,99.90
2023-08-28T18:56:55.155Z,20.60
2023-08-28T18:58:57.561Z,18.30
2023-08-28T19:00:59.738Z,58.70
2023-08-28T19:03:02.564Z,41.20
2023-08-28T19:05:06.514Z,97.00
2023-08-28T19:07:09.454Z,99.90
2023-08-28T19:09:11.777Z,99.90
2023-08-28T19:11:15.033Z,99.90
2023-08-28T19:13:17.646Z,99.90
2023-08-28T19:15:20.266Z,99.90
2023-08-28T19:17:22.421Z,99.90
2023-08-28T19:19:24.900Z,99.90
2023-08-28T19:21:27.191Z,99.90
2023-08-28T19:23:29.664Z,99.90
2023-08-28T19:25:32.218Z,99.90
2023-08-28T19:27:34.734Z,99.90
2023-08-28T19:29:55.250Z,99.90
2023-08-28T19:32:00.714Z,99.90
2023-08-28T19:34:05.384Z,99.90
2023-08-28T19:36:10.649Z,99.90
2023-08-28T19:38:13.498Z,99.90
2023-08-28T19:46:24.145Z,99.90
2023-08-28T19:48:27.512Z,99.90
2023-08-28T19:50:34.513Z,99.90
2023-08-28T19:52:36.743Z,99.90
2023-08-28T19:54:39.148Z,99.90
2023-08-28T19:56:41.381Z,1.00
2023-08-28T19:58:44.021Z,1.00
2023-08-28T20:00:46.382Z,99.90
2023-08-28T20:04:52.827Z,1.00
2023-08-28T20:06:58.134Z,1.00
2023-08-28T20:09:04.159Z,1.00
2023-08-28T20:11:08.993Z,99.90
2023-08-28T20:13:11.390Z,99.90
2023-08-28T20:15:14.988Z,1.00
2023-08-28T20:17:17.465Z,8.90
2023-08-28T20:19:20.268Z,43.10
2023-08-28T20:21:22.533Z,97.20
2023-08-28T20:23:25.114Z,68.70
2023-08-28T20:25:27.352Z,81.50
2023-08-28T20:27:29.985Z,99.90
2023-08-28T20:29:32.888Z,99.90
2023-08-28T20:31:35.347Z,99.90
2023-08-28T20:33:37.586Z,99.90
2023-08-28T20:35:40.101Z,99.90
2023-08-28T20:37:42.503Z,79.80
2023-08-28T20:39:45.018Z,99.90
2023-08-28T20:41:48.023Z,99.90
2023-08-28T20:43:50.509Z,99.90
2023-08-28T20:46:01.042Z,99.90
2023-08-28T20:48:04.570Z,99.90
2023-08-28T20:50:08.691Z,99.90
2023-08-28T20:52:11.387Z,1.00
2023-08-28T20:54:14.574Z,1.00
2023-08-28T20:56:17.090Z,1.00
2023-08-28T21:02:24.814Z,99.90
2023-08-28T21:04:27.485Z,99.90
2023-08-28T21:06:30.349Z,14.70
2023-08-28T21:10:35.292Z,99.90
2023-08-28T21:14:40.842Z,1.00
2023-08-28T21:16:43.369Z,41.90
2023-08-28T21:18:45.468Z,91.20
2023-08-28T21:20:47.917Z,22.70
2023-08-28T21:24:53.388Z,99.90
2023-08-28T21:26:55.510Z,99.90
2023-08-28T21:31:05.700Z,99.90
2023-08-28T21:37:13.641Z,1.00
2023-08-28T21:41:18.663Z,19.50
2023-08-28T21:43:21.735Z,99.90
2023-08-28T21:45:24.263Z,99.90
2023-08-28T21:51:33.752Z,99.90
2023-08-28T21:53:35.905Z,99.90
2023-08-28T21:55:39.704Z,99.90
2023-08-28T21:59:44.699Z,99.90
2023-08-28T22:03:49.345Z,99.90
2023-08-28T22:07:54.324Z,99.90
2023-08-28T22:14:01.845Z,99.90
2023-08-28T22:16:06.427Z,1.00
2023-08-28T22:18:13.147Z,1.00
2023-08-28T22:20:15.608Z,99.90
2023-08-28T22:22:17.913Z,99.90
2023-08-28T22:24:20.287Z,15.90
2023-08-28T22:26:23.228Z,99.90
2023-08-28T22:28:25.689Z,99.90
2023-08-28T22:32:30.646Z,99.90
2023-08-28T22:38:38.196Z,1.00
2023-08-28T22:40:40.607Z,99.90
2023-08-28T22:42:42.795Z,1.00
2023-08-28T22:44:45.398Z,99.60
2023-08-28T22:48:50.300Z,1.00
2023-08-28T22:50:53.222Z,99.90
2023-08-28T22:52:56.709Z,99.90
2023-08-28T22:54:58.890Z,99.90
2023-08-28T22:57:01.409Z,88.10
2023-08-28T22:59:03.990Z,1.00
2023-08-28T23:01:07.920Z,1.00
2023-08-28T23:05:13.395Z,1.00
2023-08-28T23:09:18.363Z,99.90
2023-08-28T23:11:20.532Z,99.90
2023-08-28T23:13:22.960Z,99.90
2023-08-28T23:17:29.268Z,99.90
2023-08-28T23:19:31.708Z,99.90
2023-08-28T23:21:33.875Z,99.90
2023-08-28T23:25:39.105Z,1.00
2023-08-28T23:27:42.230Z,9.30
2023-08-28T23:29:44.688Z,22.00
2023-08-28T23:31:48.649Z,1.00
2023-08-28T23:33:51.083Z,99.90
2023-08-28T23:36:00.334Z,99.90
2023-08-28T23:38:02.973Z,79.40
2023-08-28T23:40:06.473Z,99.90
2023-08-28T23:42:08.872Z,99.90
2023-08-28T23:44:11.045Z,99.90
2023-08-28T23:46:13.494Z,99.90
2023-08-28T23:48:15.803Z,99.90
2023-08-28T23:52:21.193Z,99.90
2023-08-28T23:54:23.578Z,99.90
2023-08-28T23:56:25.790Z,99.90
2023-08-28T23:58:31.566Z,99.90
